Alakai — WDI8094 — position and weather

sailwx.info

Track history (hours):
 
Tides and Currents Weather Stations Pressure Air Temp Water Temp Dewpoint Dewpoint Depression Visibility Wind Speed Wind Dir Waves Ship Positions

Alakai

Owner: Bay Ferries Ltd, Portland, ME. More information available from US FCC via Universal Licensing System and Coast Guard Vessel Documentation Center.

Last reported at 2018-Jun-23 20:27 UTC. Time now 2018-Jun-24 01:29 UTC.
Position N 43°37' W 068°55'.

Length 106 m; draft 3.3 m.

Type: High speed craft. MMSI: 369070000.

Date/timePositionNaut miles runAvg speedWind from/ knotsBaromVisibWave heightAir tempDewpointWater temp
2018-Jun-23 20:27N 43°37' W 068°55'1735.8
2018-Jun-23 19:59N 43°36' W 069°18'1835.7
2018-Jun-23 19:30N 43°34' W 069°42'2131.1
2018-Jun-23 18:49N 43°36' W 070°11'17 6.1
2018-Jun-23 16:04N 43°34' W 069°48'235.0
2018-Jun-23 16:00N 43°34' W 069°45'1734.8
2018-Jun-23 15:31N 43°35' W 069°21'1934.6
2018-Jun-23 14:57N 43°37' W 068°54'1534.3
2018-Jun-23 14:30N 43°38' W 068°34'1734.5
2018-Jun-23 14:00N 43°40' W 068°10'1734.3
2018-Jun-23 13:30N 43°41' W 067°46'21 1.4
2018-Jun-22 22:08N 43°39' W 068°15'535.5
2018-Jun-22 22:01N 43°39' W 068°22'1835.9
2018-Jun-22 21:31N 43°37' W 068°46'1835.3
2018-Jun-22 21:00N 43°36' W 069°11'1835.5
2018-Jun-22 20:30N 43°35' W 069°35'1735.0
2018-Jun-22 20:01N 43°33' W 069°59'1223.1
2018-Jun-22 19:29N 43°39' W 070°14'1 0.3
2018-Jun-22 17:02N 43°39' W 070°15'0 5.9
2018-Jun-22 17:00N 43°40' W 070°14'1019.7
2018-Jun-22 16:31N 43°33' W 070°04'1733.6
2018-Jun-22 16:01N 43°34' W 069°41'1733.6
2018-Jun-22 15:31N 43°35' W 069°18'  
2018-Jun-19 20:29N 43°34' W 069°45'1735.1
2018-Jun-19 20:01N 43°34' W 070°08'815.1
2018-Jun-19 19:30N 43°40' W 070°15'0 0.0
2018-Jun-19 19:00N 43°40' W 070°15'0 0.0
2018-Jun-19 18:30N 43°40' W 070°15'0 0.0
2018-Jun-19 18:00N 43°40' W 070°15'0 0.0
2018-Jun-19 17:30N 43°40' W 070°15'4 7.2
2018-Jun-19 17:00N 43°37' W 070°11'1326.1
2018-Jun-19 16:31N 43°34' W 069°54'12 0.3
2018-Jun-17 19:38N 43°35' W 069°37'431.8
2018-Jun-17 19:31N 43°34' W 069°43'1631.3
2018-Jun-17 19:00N 43°33' W 070°04'1019.6
2018-Jun-17 18:30N 43°39' W 070°15'0 0.3
2018-Jun-17 18:00N 43°40' W 070°15'0 0.0
2018-Jun-17 17:30N 43°40' W 070°15'0 0.0
2018-Jun-17 17:00N 43°40' W 070°15'4 7.9
2018-Jun-17 16:30N 43°37' W 070°11'1428.4
2018-Jun-17 16:00N 43°34' W 069°52'5 0.3
2018-Jun-16 19:28N 43°34' W 069°45'1634.5
2018-Jun-16 19:00N 43°33' W 070°06'917.3
2018-Jun-16 18:30N 43°40' W 070°15'0 0.0
2018-Jun-16 18:01N 43°40' W 070°15'0 0.0
2018-Jun-16 17:30N 43°40' W 070°15'4 7.1
2018-Jun-16 17:01N 43°37' W 070°11'1427.9
2018-Jun-16 16:31N 43°34' W 069°53'35 1.9
2018-Jun-15 21:21N 43°37' W 069°04'2438.0
2018-Jun-15 20:43N 43°34' W 069°36'837.4
2018-Jun-15 20:31N 43°34' W 069°47'1632.7
2018-Jun-15 20:01N 43°35' W 070°10'510.6
2018-Jun-15 19:30N 43°40' W 070°15'0 0.0
2018-Jun-15 19:00N 43°40' W 070°15'0 0.0
2018-Jun-15 18:30N 43°40' W 070°15'0 0.0
2018-Jun-15 18:00N 43°40' W 070°15'0 0.0
2018-Jun-15 17:30N 43°40' W 070°15'510.5
2018-Jun-15 17:00N 43°36' W 070°10'1428.3
2018-Jun-15 16:31N 43°34' W 069°51'  
Track history (hours):
 
Tides and Currents Weather Stations Pressure Air Temp Water Temp Dewpoint Dewpoint Depression Visibility Wind Speed Wind Dir Waves Ship Positions

Alakai

Owner: Bay Ferries Ltd, Portland, ME. More information available from US FCC via Universal Licensing System and Coast Guard Vessel Documentation Center.

Last reported at 2018-Jun-23 20:27 UTC. Time now 2018-Jun-24 01:29 UTC.
Position N 43°37' W 068°55'.

Length 106 m; draft 3.3 m.

Type: High speed craft. MMSI: 369070000.

Date/timePositionNaut miles runAvg speedWind from/ knotsBaromVisibWave heightAir tempDewpointWater temp
2018-Jun-23 20:27N 43°37' W 068°55'1735.8
2018-Jun-23 19:59N 43°36' W 069°18'1835.7
2018-Jun-23 19:30N 43°34' W 069°42'2131.1
2018-Jun-23 18:49N 43°36' W 070°11'17 6.1
2018-Jun-23 16:04N 43°34' W 069°48'235.0
2018-Jun-23 16:00N 43°34' W 069°45'1734.8
2018-Jun-23 15:31N 43°35' W 069°21'1934.6
2018-Jun-23 14:57N 43°37' W 068°54'1534.3
2018-Jun-23 14:30N 43°38' W 068°34'1734.5
2018-Jun-23 14:00N 43°40' W 068°10'1734.3
2018-Jun-23 13:30N 43°41' W 067°46'21 1.4
2018-Jun-22 22:08N 43°39' W 068°15'535.5
2018-Jun-22 22:01N 43°39' W 068°22'1835.9
2018-Jun-22 21:31N 43°37' W 068°46'1835.3
2018-Jun-22 21:00N 43°36' W 069°11'1835.5
2018-Jun-22 20:30N 43°35' W 069°35'1735.0
2018-Jun-22 20:01N 43°33' W 069°59'1223.1
2018-Jun-22 19:29N 43°39' W 070°14'1 0.3
2018-Jun-22 17:02N 43°39' W 070°15'0 5.9
2018-Jun-22 17:00N 43°40' W 070°14'1019.7
2018-Jun-22 16:31N 43°33' W 070°04'1733.6
2018-Jun-22 16:01N 43°34' W 069°41'1733.6
2018-Jun-22 15:31N 43°35' W 069°18'  
2018-Jun-19 20:29N 43°34' W 069°45'1735.1
2018-Jun-19 20:01N 43°34' W 070°08'815.1
2018-Jun-19 19:30N 43°40' W 070°15'0 0.0
2018-Jun-19 19:00N 43°40' W 070°15'0 0.0
2018-Jun-19 18:30N 43°40' W 070°15'0 0.0
2018-Jun-19 18:00N 43°40' W 070°15'0 0.0
2018-Jun-19 17:30N 43°40' W 070°15'4 7.2
2018-Jun-19 17:00N 43°37' W 070°11'1326.1
2018-Jun-19 16:31N 43°34' W 069°54'12 0.3
2018-Jun-17 19:38N 43°35' W 069°37'431.8
2018-Jun-17 19:31N 43°34' W 069°43'1631.3
2018-Jun-17 19:00N 43°33' W 070°04'1019.6
2018-Jun-17 18:30N 43°39' W 070°15'0 0.3
2018-Jun-17 18:00N 43°40' W 070°15'0 0.0
2018-Jun-17 17:30N 43°40' W 070°15'0 0.0
2018-Jun-17 17:00N 43°40' W 070°15'4 7.9
2018-Jun-17 16:30N 43°37' W 070°11'1428.4
2018-Jun-17 16:00N 43°34' W 069°52'5 0.3
2018-Jun-16 19:28N 43°34' W 069°45'1634.5
2018-Jun-16 19:00N 43°33' W 070°06'917.3
2018-Jun-16 18:30N 43°40' W 070°15'0 0.0
2018-Jun-16 18:01N 43°40' W 070°15'0 0.0
2018-Jun-16 17:30N 43°40' W 070°15'4 7.1
2018-Jun-16 17:01N 43°37' W 070°11'1427.9
2018-Jun-16 16:31N 43°34' W 069°53'35 1.9
2018-Jun-15 21:21N 43°37' W 069°04'2438.0
2018-Jun-15 20:43N 43°34' W 069°36'837.4
2018-Jun-15 20:31N 43°34' W 069°47'1632.7
2018-Jun-15 20:01N 43°35' W 070°10'510.6
2018-Jun-15 19:30N 43°40' W 070°15'0 0.0
2018-Jun-15 19:00N 43°40' W 070°15'0 0.0
2018-Jun-15 18:30N 43°40' W 070°15'0 0.0
2018-Jun-15 18:00N 43°40' W 070°15'0 0.0
2018-Jun-15 17:30N 43°40' W 070°15'510.5
2018-Jun-15 17:00N 43°36' W 070°10'1428.3
2018-Jun-15 16:31N 43°34' W 069°51'  

Dump ship's entire track history